createdAt,value
2017-11-18T00:00:43.717Z,3.00
2017-11-18T00:03:11.221Z,3.00
2017-11-18T00:05:39.451Z,3.10
2017-11-18T00:08:06.952Z,3.10
2017-11-18T00:10:35.213Z,3.20
2017-11-18T00:13:02.688Z,3.10
2017-11-18T00:15:30.946Z,3.20
2017-11-18T00:17:58.405Z,3.20
2017-11-18T00:20:25.914Z,3.20
2017-11-18T00:22:53.405Z,3.30
2017-11-18T00:25:20.936Z,3.20
2017-11-18T00:27:49.166Z,3.20
2017-11-18T00:30:16.677Z,3.20
2017-11-18T00:32:44.166Z,3.20
2017-11-18T00:35:11.638Z,3.20
2017-11-18T00:37:39.139Z,3.20
2017-11-18T00:40:06.628Z,3.20
2017-11-18T00:42:34.156Z,3.20
2017-11-18T00:45:01.627Z,3.20
2017-11-18T00:47:29.132Z,3.20
2017-11-18T00:49:56.636Z,3.20
2017-11-18T00:52:24.113Z,3.10
2017-11-18T00:54:51.589Z,3.10
2017-11-18T00:57:19.105Z,3.10
2017-11-18T00:59:46.596Z,3.10
2017-11-18T01:02:14.068Z,3.10
2017-11-18T01:04:41.571Z,3.00
2017-11-18T01:07:09.064Z,3.00
2017-11-18T01:09:36.542Z,3.00
2017-11-18T01:12:04.034Z,2.90
2017-11-18T01:14:32.286Z,2.90
2017-11-18T01:16:59.793Z,2.90
2017-11-18T01:19:27.261Z,2.90
2017-11-18T01:21:54.743Z,2.90
2017-11-18T01:24:22.225Z,2.90
2017-11-18T01:26:49.692Z,2.90
2017-11-18T01:29:17.214Z,2.90
2017-11-18T01:31:44.693Z,2.90
2017-11-18T01:34:12.185Z,2.90
2017-11-18T01:36:40.476Z,3.00
2017-11-18T01:39:07.972Z,2.90
2017-11-18T01:41:35.508Z,2.90
2017-11-18T01:44:03.012Z,2.90
2017-11-18T01:46:30.509Z,2.90
2017-11-18T01:48:58.029Z,2.90
2017-11-18T01:51:25.498Z,3.00
2017-11-18T01:53:53.002Z,2.90
2017-11-18T01:56:20.505Z,3.00
2017-11-18T01:58:47.979Z,3.00
2017-11-18T02:01:16.240Z,3.00
2017-11-18T02:03:43.711Z,2.90
2017-11-18T02:06:11.230Z,3.00
2017-11-18T02:08:38.709Z,3.00
2017-11-18T02:11:06.177Z,2.90
2017-11-18T02:13:33.668Z,2.90
2017-11-18T02:16:01.152Z,2.90
2017-11-18T02:18:28.649Z,2.90
2017-11-18T02:20:56.172Z,2.90
2017-11-18T02:23:23.676Z,3.00
2017-11-18T02:25:51.154Z,3.00
2017-11-18T02:28:19.419Z,3.00
2017-11-18T02:30:47.695Z,3.10
2017-11-18T02:33:15.195Z,3.10
2017-11-18T02:35:42.685Z,3.00
2017-11-18T02:38:10.177Z,3.00
2017-11-18T02:40:38.416Z,3.00
2017-11-18T02:43:05.909Z,3.00
2017-11-18T02:45:34.160Z,3.00
2017-11-18T02:48:01.631Z,3.00
2017-11-18T02:50:29.120Z,3.00
2017-11-18T02:52:56.604Z,3.00
2017-11-18T02:55:24.104Z,3.00
2017-11-18T02:57:51.584Z,3.00
2017-11-18T03:00:19.818Z,3.00
2017-11-18T03:02:47.321Z,3.00
2017-11-18T03:05:15.557Z,3.00
2017-11-18T03:07:43.068Z,3.00
2017-11-18T03:10:10.543Z,3.00
2017-11-18T03:12:38.062Z,3.00
2017-11-18T03:15:05.516Z,3.00
2017-11-18T03:17:32.986Z,3.00
2017-11-18T03:20:01.248Z,3.00
2017-11-18T03:22:28.722Z,3.00
2017-11-18T03:24:56.202Z,3.00
2017-11-18T03:27:23.724Z,3.00
2017-11-18T03:29:51.215Z,3.00
2017-11-18T03:32:18.704Z,3.00
2017-11-18T03:34:46.177Z,3.00
2017-11-18T03:37:14.360Z,3.00
2017-11-18T03:39:41.838Z,3.00
2017-11-18T03:42:09.296Z,3.00
2017-11-18T03:44:37.550Z,3.00
2017-11-18T03:47:05.054Z,3.00
2017-11-18T03:49:33.342Z,3.00
2017-11-18T03:52:00.802Z,3.00
2017-11-18T03:54:28.315Z,3.00
2017-11-18T03:56:55.784Z,3.10
2017-11-18T03:59:23.272Z,3.10
2017-11-18T04:01:50.776Z,3.10
2017-11-18T04:04:18.257Z,3.10
2017-11-18T04:06:45.745Z,3.10
2017-11-18T04:09:13.220Z,3.10
2017-11-18T04:11:40.715Z,3.10
2017-11-18T04:14:08.193Z,3.10
2017-11-18T04:16:35.652Z,3.10
2017-11-18T04:19:03.146Z,3.10
2017-11-18T04:21:30.614Z,3.20
2017-11-18T04:23:58.156Z,3.20
2017-11-18T04:26:25.625Z,3.20
2017-11-18T04:28:53.092Z,3.10
2017-11-18T04:31:20.580Z,3.10
2017-11-18T04:33:48.053Z,3.20
2017-11-18T04:36:15.539Z,3.10
2017-11-18T04:38:43.802Z,3.10
2017-11-18T04:41:12.054Z,3.10
2017-11-18T04:43:39.552Z,3.10
2017-11-18T04:46:07.795Z,3.10
2017-11-18T04:48:35.284Z,3.10
2017-11-18T04:51:03.520Z,3.20
2017-11-18T04:53:31.028Z,3.20
2017-11-18T04:55:58.525Z,3.20
2017-11-18T04:58:26.009Z,3.20
2017-11-18T05:00:53.509Z,3.20
2017-11-18T05:03:21.016Z,3.20
2017-11-18T05:05:48.512Z,3.20
2017-11-18T05:08:16.757Z,3.20
2017-11-18T05:10:44.281Z,3.20
2017-11-18T05:13:11.737Z,3.20
2017-11-18T05:15:39.219Z,3.20
2017-11-18T05:18:06.700Z,3.20
2017-11-18T05:20:34.169Z,3.10
2017-11-18T05:23:02.441Z,3.20
2017-11-18T05:25:29.921Z,3.10
2017-11-18T05:27:58.151Z,3.10
2017-11-18T05:30:25.664Z,3.10
2017-11-18T05:32:53.125Z,3.20
2017-11-18T05:35:20.609Z,3.20
2017-11-18T05:37:48.065Z,3.20
2017-11-18T05:40:15.584Z,3.20
2017-11-18T05:42:43.867Z,3.20
2017-11-18T05:45:12.102Z,3.20
2017-11-18T05:47:39.611Z,3.20
2017-11-18T05:50:07.074Z,3.20
2017-11-18T05:52:34.965Z,3.20
2017-11-18T05:55:02.478Z,3.20
2017-11-18T05:57:30.728Z,3.20
2017-11-18T05:59:58.206Z,3.20
2017-11-18T06:02:26.455Z,3.20
2017-11-18T06:04:53.965Z,3.20
2017-11-18T06:07:21.423Z,3.30
2017-11-18T06:09:48.928Z,3.30
2017-11-18T06:12:16.396Z,3.30
2017-11-18T06:14:43.896Z,3.30
2017-11-18T06:17:12.124Z,3.20
2017-11-18T06:19:39.604Z,3.20
2017-11-18T06:22:07.174Z,3.20
2017-11-18T06:24:35.415Z,3.20
2017-11-18T06:27:02.909Z,3.20
2017-11-18T06:29:31.157Z,3.30
2017-11-18T06:31:58.673Z,3.30
2017-11-18T06:34:26.164Z,3.30
2017-11-18T06:36:53.625Z,3.30
2017-11-18T06:39:21.125Z,3.30
2017-11-18T06:41:49.372Z,3.30
2017-11-18T06:44:16.889Z,3.30
2017-11-18T06:46:45.262Z,3.30
2017-11-18T06:49:12.764Z,3.30
2017-11-18T06:51:40.238Z,3.30
2017-11-18T06:54:07.708Z,3.30
2017-11-18T06:56:35.957Z,3.40
2017-11-18T06:59:04.928Z,3.40
2017-11-18T07:01:32.456Z,3.40
2017-11-18T07:04:00.680Z,3.40
2017-11-18T07:06:28.172Z,3.40
2017-11-18T07:08:56.452Z,3.50
2017-11-18T07:11:24.715Z,3.40
2017-11-18T07:13:52.226Z,3.40
2017-11-18T07:16:19.758Z,3.40
2017-11-18T07:18:48.018Z,3.50
2017-11-18T07:21:15.581Z,3.40
2017-11-18T07:23:43.821Z,3.40
2017-11-18T07:26:11.348Z,3.40
2017-11-18T07:28:38.849Z,3.50
2017-11-18T07:31:06.362Z,3.50
2017-11-18T07:33:33.838Z,3.50
2017-11-18T07:36:01.369Z,3.50
2017-11-18T07:38:29.596Z,3.90
2017-11-18T07:40:57.080Z,3.90
2017-11-18T07:43:24.576Z,4.20
2017-11-18T07:45:52.082Z,4.30
2017-11-18T07:48:19.576Z,4.30
2017-11-18T07:50:47.832Z,4.50
2017-11-18T07:53:15.318Z,4.50
2017-11-18T07:55:42.817Z,4.00
2017-11-18T07:58:10.303Z,3.80
2017-11-18T08:00:37.811Z,3.70
2017-11-18T08:03:05.322Z,3.60
2017-11-18T08:05:34.293Z,3.60
2017-11-18T08:08:01.784Z,3.60
2017-11-18T08:10:30.064Z,3.60
2017-11-18T08:12:58.336Z,3.60
2017-11-18T08:15:25.815Z,3.60
2017-11-18T08:17:54.086Z,3.60
2017-11-18T08:20:22.516Z,3.50
2017-11-18T08:22:50.877Z,3.50
2017-11-18T08:25:18.374Z,3.60
2017-11-18T08:27:45.873Z,3.60
2017-11-18T08:30:14.116Z,3.70
2017-11-18T08:32:42.330Z,3.70
2017-11-18T08:35:09.860Z,3.80
2017-11-18T08:37:37.351Z,3.80
2017-11-18T08:40:04.817Z,3.80
2017-11-18T08:42:32.315Z,3.90
2017-11-18T08:44:59.793Z,4.00
2017-11-18T08:47:27.282Z,4.00
2017-11-18T08:49:54.805Z,4.00
2017-11-18T08:52:22.284Z,4.00
2017-11-18T08:54:50.525Z,4.00
2017-11-18T08:57:18.009Z,3.90
2017-11-18T08:59:46.597Z,3.80
2017-11-18T09:02:14.843Z,3.80
2017-11-18T09:04:42.305Z,3.80
2017-11-18T09:07:09.796Z,3.80
2017-11-18T09:09:38.069Z,3.80
2017-11-18T09:12:06.347Z,3.90
2017-11-18T09:14:34.574Z,4.00
2017-11-18T09:17:02.056Z,3.90
2017-11-18T09:19:29.543Z,3.90
2017-11-18T09:21:57.798Z,3.90
2017-11-18T09:24:25.300Z,3.90
2017-11-18T09:26:52.773Z,3.90
2017-11-18T09:29:20.293Z,4.00
2017-11-18T09:31:48.571Z,3.90
2017-11-18T09:34:16.813Z,4.00
2017-11-18T09:36:44.301Z,4.00
2017-11-18T09:39:12.538Z,4.00
2017-11-18T09:41:40.007Z,4.00
2017-11-18T09:44:07.504Z,4.10
2017-11-18T09:46:35.760Z,4.00
2017-11-18T09:49:03.224Z,4.00
2017-11-18T09:51:31.504Z,4.20
2017-11-18T09:53:59.766Z,4.30
2017-11-18T09:56:27.289Z,4.20
2017-11-18T09:58:54.770Z,4.30
2017-11-18T10:01:22.268Z,4.30
2017-11-18T10:03:49.782Z,4.30
2017-11-18T10:06:17.241Z,4.20
2017-11-18T10:08:44.757Z,4.10
2017-11-18T10:11:12.349Z,4.10
2017-11-18T10:13:40.073Z,4.10
2017-11-18T10:16:08.297Z,4.30
2017-11-18T10:18:35.837Z,4.30
2017-11-18T10:21:03.333Z,4.20
2017-11-18T10:23:30.811Z,4.10
2017-11-18T10:25:59.829Z,4.10
2017-11-18T10:28:27.317Z,4.10
2017-11-18T10:30:54.817Z,4.20
2017-11-18T10:33:22.296Z,4.20
2017-11-18T10:35:50.589Z,4.40
2017-11-18T10:38:18.085Z,4.40
2017-11-18T10:40:45.568Z,4.40
2017-11-18T10:43:13.058Z,4.50
2017-11-18T10:45:40.525Z,4.30
2017-11-18T10:48:08.083Z,4.30
2017-11-18T10:50:35.560Z,4.30
2017-11-18T10:53:03.021Z,4.30
2017-11-18T10:55:30.544Z,4.10
2017-11-18T10:57:58.783Z,4.10
2017-11-18T11:00:26.241Z,4.10
2017-11-18T11:02:53.728Z,4.20
2017-11-18T11:05:22.003Z,4.20
2017-11-18T11:07:50.257Z,4.20
2017-11-18T11:10:17.774Z,4.20
2017-11-18T11:12:45.269Z,4.40
2017-11-18T11:15:12.737Z,4.40
2017-11-18T11:17:40.248Z,4.30
2017-11-18T11:20:07.726Z,4.30
2017-11-18T11:22:35.290Z,4.40
2017-11-18T11:25:02.785Z,4.30
2017-11-18T11:27:31.075Z,4.50
2017-11-18T11:29:59.316Z,4.50
2017-11-18T11:32:26.830Z,4.50
2017-11-18T11:34:54.338Z,4.60
2017-11-18T11:37:21.815Z,4.50
2017-11-18T11:39:49.309Z,4.40
2017-11-18T11:42:16.783Z,4.50
2017-11-18T11:44:44.275Z,4.50
2017-11-18T11:47:11.747Z,4.50
2017-11-18T11:49:39.237Z,4.40
2017-11-18T11:52:06.717Z,4.40
2017-11-18T11:54:34.204Z,4.50
2017-11-18T11:57:01.710Z,4.50
2017-11-18T11:59:30.858Z,4.50
2017-11-18T12:01:58.344Z,4.40
2017-11-18T12:04:26.584Z,4.60
2017-11-18T12:06:54.081Z,4.60
2017-11-18T12:09:22.332Z,4.50
2017-11-18T12:11:49.858Z,4.50
2017-11-18T12:14:17.369Z,4.50
2017-11-18T12:16:44.860Z,4.60
2017-11-18T12:19:12.366Z,4.40
2017-11-18T12:21:39.874Z,4.50
2017-11-18T12:24:07.368Z,4.50
2017-11-18T12:26:34.843Z,4.40
2017-11-18T12:29:02.348Z,4.40
2017-11-18T12:31:29.841Z,4.40
2017-11-18T12:33:57.344Z,4.50
2017-11-18T12:36:25.621Z,4.50
2017-11-18T12:38:53.887Z,4.50
2017-11-18T12:41:21.356Z,4.40
2017-11-18T12:43:49.621Z,4.50
2017-11-18T12:46:17.123Z,4.50
2017-11-18T12:48:44.594Z,4.50
2017-11-18T12:51:12.089Z,4.40
2017-11-18T12:53:41.117Z,4.30
2017-11-18T12:56:09.390Z,4.30
2017-11-18T12:58:37.618Z,4.30
2017-11-18T13:01:05.137Z,4.30
2017-11-18T13:03:32.650Z,4.40
2017-11-18T13:06:00.131Z,4.30
2017-11-18T13:08:27.618Z,4.30
2017-11-18T13:10:55.092Z,4.30
2017-11-18T13:13:22.595Z,4.20
2017-11-18T13:15:50.121Z,4.20
2017-11-18T13:18:17.580Z,4.20
2017-11-18T13:20:45.085Z,4.20
2017-11-18T13:23:13.356Z,4.20
2017-11-18T13:25:40.836Z,4.20
2017-11-18T13:28:09.104Z,4.20
2017-11-18T13:30:37.347Z,4.20
2017-11-18T13:33:04.845Z,4.20
2017-11-18T13:35:33.106Z,4.20
2017-11-18T13:38:00.567Z,4.20
2017-11-18T13:40:28.841Z,4.20
2017-11-18T13:42:56.307Z,4.20
2017-11-18T13:45:24.574Z,4.20
2017-11-18T13:47:52.034Z,4.20
2017-11-18T13:50:19.501Z,4.20
2017-11-18T13:52:47.761Z,4.20
2017-11-18T13:55:15.229Z,4.10
2017-11-18T13:57:43.493Z,4.20
2017-11-18T14:00:11.732Z,4.10
2017-11-18T14:02:39.234Z,4.20
2017-11-18T14:05:06.709Z,4.10
2017-11-18T14:07:34.964Z,4.10
2017-11-18T14:10:02.447Z,4.00
2017-11-18T14:12:29.977Z,4.00
2017-11-18T14:14:57.481Z,3.90
2017-11-18T14:17:25.477Z,3.90
2017-11-18T14:19:52.945Z,3.90
2017-11-18T14:22:20.469Z,3.90
2017-11-18T14:24:47.972Z,3.90
2017-11-18T14:27:15.490Z,3.90
2017-11-18T14:29:42.978Z,3.90
2017-11-18T14:32:10.511Z,3.90
2017-11-18T14:34:38.007Z,3.90
2017-11-18T14:37:05.522Z,3.90
2017-11-18T14:39:33.043Z,3.80
2017-11-18T14:42:00.524Z,3.80
2017-11-18T14:44:28.773Z,3.90
2017-11-18T14:46:56.304Z,3.90
2017-11-18T14:49:23.785Z,3.90
2017-11-18T14:51:51.288Z,3.90
2017-11-18T14:54:18.744Z,3.90
2017-11-18T14:56:46.247Z,4.00
2017-11-18T14:59:13.708Z,3.90
2017-11-18T15:01:41.189Z,3.80
2017-11-18T15:04:08.690Z,3.80
2017-11-18T15:06:36.215Z,3.80
2017-11-18T15:09:03.717Z,3.80
2017-11-18T15:11:31.194Z,3.80
2017-11-18T15:13:58.705Z,3.80
2017-11-18T15:16:34.400Z,3.70
2017-11-18T15:19:08.438Z,3.70
2017-11-18T15:24:54.144Z,3.70
2017-11-18T15:27:27.325Z,3.60
2017-11-18T15:29:58.481Z,3.70
2017-11-18T15:32:31.522Z,3.60
2017-11-18T15:34:59.018Z,3.60
2017-11-18T15:40:30.269Z,3.60
2017-11-18T15:42:58.520Z,3.60
2017-11-18T15:45:27.816Z,3.60
2017-11-18T15:48:01.093Z,3.50
2017-11-18T15:50:34.980Z,3.50
2017-11-18T15:53:08.275Z,3.50
2017-11-18T15:58:49.768Z,3.50
2017-11-18T16:01:23.876Z,3.50
2017-11-18T16:03:52.816Z,3.50
2017-11-18T16:12:40.053Z,3.50
2017-11-18T16:15:15.199Z,3.40
2017-11-18T16:17:43.482Z,3.40
2017-11-18T16:25:51.215Z,3.40
2017-11-18T16:30:59.955Z,3.40
2017-11-18T16:33:27.484Z,3.40
2017-11-18T16:35:54.972Z,3.40
2017-11-18T16:38:23.253Z,3.40
2017-11-18T16:40:50.715Z,3.30
2017-11-18T16:43:18.966Z,3.20
2017-11-18T16:45:46.452Z,3.20
2017-11-18T16:48:14.704Z,3.10
2017-11-18T16:50:42.210Z,3.10
2017-11-18T16:53:09.755Z,3.10
2017-11-18T16:55:38.057Z,3.00
2017-11-18T16:58:05.544Z,3.00
2017-11-18T17:00:33.006Z,3.00
2017-11-18T17:03:00.517Z,2.90
2017-11-18T17:05:28.777Z,2.80
2017-11-18T17:07:57.054Z,2.80
2017-11-18T17:10:25.414Z,2.80
2017-11-18T17:12:53.824Z,2.80
2017-11-18T17:15:21.311Z,2.70
2017-11-18T17:17:48.800Z,2.70
2017-11-18T17:20:16.368Z,2.70
2017-11-18T17:22:43.851Z,2.70
2017-11-18T17:25:12.127Z,2.70
2017-11-18T17:27:40.364Z,2.70
2017-11-18T17:30:07.852Z,2.60
2017-11-18T17:32:36.087Z,2.70
2017-11-18T17:35:03.590Z,2.70
2017-11-18T17:37:31.199Z,2.70
2017-11-18T17:39:58.657Z,2.70
2017-11-18T17:42:26.185Z,2.70
2017-11-18T17:44:54.432Z,2.80
2017-11-18T17:47:21.977Z,2.80
2017-11-18T17:49:49.484Z,2.80
2017-11-18T17:52:17.725Z,2.80
2017-11-18T17:54:45.246Z,2.80
2017-11-18T17:57:12.717Z,2.80
2017-11-18T17:59:40.204Z,2.80
2017-11-18T18:02:07.736Z,2.80
2017-11-18T18:04:35.207Z,2.80
2017-11-18T18:07:02.743Z,2.80
2017-11-18T18:12:26.245Z,2.80
2017-11-18T18:14:53.720Z,2.80
2017-11-18T18:17:21.237Z,2.80
2017-11-18T18:19:48.749Z,2.80
2017-11-18T18:22:16.233Z,2.80
2017-11-18T18:24:44.544Z,2.80
2017-11-18T18:27:12.021Z,2.80
2017-11-18T18:29:39.513Z,2.80
2017-11-18T18:32:07.832Z,2.80
2017-11-18T18:34:35.323Z,2.80
2017-11-18T18:37:02.800Z,2.80
2017-11-18T18:39:30.294Z,2.80
2017-11-18T18:41:57.809Z,2.80
2017-11-18T18:44:25.278Z,2.80
2017-11-18T18:46:52.779Z,2.80
2017-11-18T18:49:20.320Z,2.70
2017-11-18T18:51:47.828Z,2.80
2017-11-18T18:54:15.399Z,2.80
2017-11-18T18:56:42.865Z,2.80
2017-11-18T18:59:10.335Z,2.80
2017-11-18T19:01:37.840Z,2.80
2017-11-18T19:04:05.300Z,2.80
2017-11-18T19:06:32.825Z,2.80
2017-11-18T19:09:01.133Z,2.80
2017-11-18T19:11:28.632Z,2.80
2017-11-18T19:13:56.125Z,2.70
2017-11-18T19:16:24.518Z,2.70
2017-11-18T19:18:52.017Z,2.70
2017-11-18T19:21:19.510Z,2.70
2017-11-18T19:23:47.764Z,2.80
2017-11-18T19:26:15.285Z,2.70
2017-11-18T19:28:43.515Z,2.70
2017-11-18T19:31:11.054Z,2.70
2017-11-18T19:33:38.572Z,2.80
2017-11-18T19:36:06.117Z,2.80
2017-11-18T19:38:34.343Z,2.80
2017-11-18T19:41:01.866Z,2.80
2017-11-18T19:43:29.341Z,2.80
2017-11-18T19:45:56.980Z,2.70
2017-11-18T19:48:24.525Z,2.70
2017-11-18T19:50:52.753Z,2.60
2017-11-18T19:53:20.224Z,2.60
2017-11-18T19:55:47.789Z,2.60
2017-11-18T19:58:15.310Z,2.60
2017-11-18T20:00:42.872Z,2.60
2017-11-18T20:03:10.378Z,2.60
2017-11-18T20:05:38.668Z,2.60
2017-11-18T20:08:06.957Z,2.60
2017-11-18T20:10:35.196Z,2.60
2017-11-18T20:13:02.817Z,2.60
2017-11-18T20:15:30.326Z,2.60
2017-11-18T20:17:57.845Z,2.60
2017-11-18T20:20:25.445Z,2.60
2017-11-18T20:22:52.991Z,2.60
2017-11-18T20:25:20.556Z,2.60
2017-11-18T20:27:48.059Z,2.60
2017-11-18T20:30:15.560Z,2.60
2017-11-18T20:32:43.048Z,2.70
2017-11-18T20:35:10.512Z,2.70
2017-11-18T20:37:38.794Z,2.70
2017-11-18T20:40:07.113Z,2.70
2017-11-18T20:42:34.645Z,2.70
2017-11-18T20:45:02.126Z,2.80
2017-11-18T20:47:29.653Z,2.70
2017-11-18T20:49:57.906Z,2.70
2017-11-18T20:52:25.442Z,2.70
2017-11-18T20:54:52.966Z,2.70
2017-11-18T20:57:20.534Z,2.80
2017-11-18T20:59:48.065Z,2.80
2017-11-18T21:02:16.306Z,2.80
2017-11-18T21:04:43.854Z,2.80
2017-11-18T21:07:11.383Z,2.80
2017-11-18T21:09:38.847Z,2.80
2017-11-18T21:12:06.458Z,2.80
2017-11-18T21:14:34.005Z,2.90
2017-11-18T21:17:01.496Z,2.80
2017-11-18T21:19:29.803Z,2.90
2017-11-18T21:21:57.389Z,2.90
2017-11-18T21:24:24.976Z,2.90
2017-11-18T21:26:53.244Z,2.90
2017-11-18T21:29:20.759Z,2.90
2017-11-18T21:31:48.276Z,2.90
2017-11-18T21:34:15.804Z,2.90
2017-11-18T21:36:43.349Z,2.80
2017-11-18T21:39:10.850Z,2.80
2017-11-18T21:41:38.312Z,2.90
2017-11-18T21:44:05.832Z,2.90
2017-11-18T21:46:33.325Z,2.90
2017-11-18T21:49:00.871Z,2.90
2017-11-18T21:51:28.371Z,2.90
2017-11-18T21:53:56.596Z,2.80
2017-11-18T21:56:24.142Z,2.80
2017-11-18T21:58:51.674Z,2.80
2017-11-18T22:01:19.920Z,2.80
2017-11-18T22:03:47.841Z,2.80
2017-11-18T22:06:15.328Z,2.70
2017-11-18T22:08:42.835Z,2.70
2017-11-18T22:11:11.199Z,2.70
2017-11-18T22:13:39.466Z,2.60
2017-11-18T22:16:06.978Z,2.60
2017-11-18T22:18:34.449Z,2.60
2017-11-18T22:21:01.971Z,2.60
2017-11-18T22:23:29.546Z,2.60
2017-11-18T22:25:57.026Z,2.60
2017-11-18T22:28:24.531Z,2.50
2017-11-18T22:30:52.773Z,2.50
2017-11-18T22:33:20.304Z,2.50
2017-11-18T22:35:47.773Z,2.50
2017-11-18T22:38:15.276Z,2.50
2017-11-18T22:40:42.763Z,2.50
2017-11-18T22:43:10.246Z,2.60
2017-11-18T22:45:37.746Z,2.50
2017-11-18T22:48:05.225Z,2.60
2017-11-18T22:50:33.502Z,2.60
2017-11-18T22:53:01.729Z,2.60
2017-11-18T22:55:29.235Z,2.60
2017-11-18T22:57:57.528Z,2.50
2017-11-18T23:00:40.547Z,2.60
2017-11-18T23:03:08.825Z,2.50
2017-11-18T23:05:37.076Z,2.60
2017-11-18T23:08:04.550Z,2.50
2017-11-18T23:10:32.825Z,2.50
2017-11-18T23:13:01.062Z,2.50
2017-11-18T23:15:28.592Z,2.50
2017-11-18T23:17:56.058Z,2.60
2017-11-18T23:20:23.566Z,2.60
2017-11-18T23:22:51.045Z,2.50
2017-11-18T23:25:19.336Z,2.60
2017-11-18T23:27:46.811Z,2.60
2017-11-18T23:30:14.281Z,2.60
2017-11-18T23:32:41.785Z,2.50
2017-11-18T23:35:10.084Z,2.60
2017-11-18T23:37:37.565Z,2.60
2017-11-18T23:40:05.020Z,2.50
2017-11-18T23:42:32.483Z,2.60
2017-11-18T23:45:00.011Z,2.60
2017-11-18T23:47:28.238Z,2.50
2017-11-18T23:49:55.727Z,2.50
2017-11-18T23:52:23.995Z,2.60
2017-11-18T23:54:51.504Z,2.50
2017-11-18T23:57:18.983Z,2.60
2017-11-18T23:59:46.461Z,2.50
